Aérodrome :
LOGIN :

S'inscrire | Disclaimer

   EN    FR    IT 

 










Légende :    VFR   VFR Marginal   IFR   IFR Intensif   IFR Très Intensif
Visi : 
Plafond : 
>= 8 km
>= 3000ft
5 à 8 km
1000 à 3000 ft
1500m à 5 km
500 à 1000 ft
800 à 1500m
200 à 500 ft
< 800m
< 200 ft
Symboles :   Orages  Brouillard  Fortes neiges  Fortes précipitations  Vent > 20 kt
SIGMETs :   Divers  Orages  Givrage  Turbulence  Onde Orograph.  Cendres Volcan.






- Altitude de l'aérodrome : 203 ft
- Code IATA : XMJ


LFBM - Mont-De-Marsan

DERNIER METAR :
  • 140030Z AUTO 28014KT 7000 -RA FEW013/// SCT021/// BKN026/// ///CB 09/08 Q1001 TEMPO 3000 BECMG BKN007 OVC025TCU OVC050

METARs EXPIRÉS :
  • 140000Z AUTO 21007KT 180V240 9999 -RA BKN047/// BKN094/// OVC140/// ///CB 10/06 Q1000 TEMPO 3000 BECMG BKN007 OVC025TCU OVC050
  • 132330Z AUTO 19005KT 160V240 9999 ///CB 10/06 Q1000 TEMPO 3000 BECMG BKN007 OVC025TCU OVC050
  • 132300Z AUTO 18005KT 150V210 CAVOK 10/06 Q1001 TEMPO 3000 BECMG BKN007 OVC025TCU OVC050
  • 132230Z AUTO 19005KT 150V230 CAVOK 10/06 Q1002 TEMPO 3000 BECMG BKN007 OVC025TCU OVC050
  • 132200Z AUTO 18005KT 150V220 CAVOK 09/06 Q1003 TEMPO 3000 BECMG BKN007 OVC025TCU OVC050

TAF TAF LFBM
Valide du 13 à 21h jusqu'au 14 à 21h UTC


132000Z 1321/1421 27005KT 9999 BKN030
BECMG 1321/1322 23010G20KT RA BKN007 OVC025TCU OVC050
TEMPO 1322/1408 3000
BECMG 1408/1410 SCT015CB BKN050
TEMPO 1410/1415 3000 SHRA
BECMG 1419/1421 3000 BR BKN005



MET'MAP, la Météo Aéronautique d'un coup d'oeil ! - Copyright ORBIFLY Décembre 2007 - Disclaimer

ORBIFLY MET'MAP TEAM :

Programmation & Développement : Alexandra Zaïnal
Conception & Développement : Baudouin d'Aumeries
Co-Programmation & Développement : Marc-Olivier Méhu
Soutien technique & logistique : Manuel Goepfert

Contact : metmap@orbifly.com




SOURCES & CREDITS :

   NOAA